Time;durP1;ratioP1;P1;durP2;ratioP2;P2;SDS_P1;SDS_P2;PMS_P1;PMS_P2;Temp;Humidity;BMP_temperature;BMP_pressure;BME280_temperature;BME280_humidity;BME280_pressure;Samples;Min_cycle;Max_cycle;Signal;HPM_P1;HPM_P2
2021/09/18 00:00:03;;;;;;;16.98;14.18;;;;;;;13.51;100.00;101548.97;5264538;28;20060;-67
2021/09/18 00:02:34;;;;;;;;;;;;;;;13.91;100.00;101549.97;5262134;28;20036;-67
2021/09/18 00:05:06;;;;;;;15.80;14.10;;;;;;;13.53;100.00;101540.97;5261647;28;20086;-67
2021/09/18 00:07:37;;;;;;;16.13;14.35;;;;;;;13.50;100.00;101543.84;5262716;28;20512;-67
2021/09/18 00:10:09;;;;;;;15.85;14.18;;;;;;;13.48;100.00;101538.69;5262553;28;20478;-68
2021/09/18 00:12:40;;;;;;;18.20;14.90;;;;;;;13.47;100.00;101539.69;5263014;28;20110;-67
2021/09/18 00:15:12;;;;;;;17.08;15.00;;;;;;;13.45;100.00;101548.66;5261294;28;20415;-67
2021/09/18 00:17:43;;;;;;;19.08;15.52;;;;;;;13.43;100.00;101546.16;5261459;28;20112;-67
2021/09/18 00:20:15;;;;;;;16.40;14.00;;;;;;;13.36;100.00;101548.47;5260869;28;20449;-68
2021/09/18 00:22:46;;;;;;;17.45;15.60;;;;;;;13.36;100.00;101545.84;5262578;28;20166;-67
2021/09/18 00:25:17;;;;;;;17.27;14.32;;;;;;;13.28;100.00;101542.22;5264879;28;20036;-67
2021/09/18 00:27:48;;;;;;;16.27;14.57;;;;;;;13.26;100.00;101552.88;5261674;28;20150;-67
2021/09/18 00:30:21;;;;;;;16.70;14.85;;;;;;;13.29;100.00;101552.59;5258892;28;20065;-67
2021/09/18 00:32:52;;;;;;;17.97;15.03;;;;;;;13.23;100.00;101544.38;5262144;28;20452;-67
2021/09/18 00:35:23;;;;;;;17.23;13.85;;;;;;;13.24;100.00;101540.81;5262686;28;20144;-67
2021/09/18 00:37:54;;;;;;;19.75;14.07;;;;;;;13.18;100.00;101538.66;5262103;28;20508;-68
2021/09/18 00:40:26;;;;;;;15.45;13.82;;;;;;;13.17;100.00;101542.25;5262128;28;20052;-68
2021/09/18 00:42:57;;;;;;;18.45;15.25;;;;;;;13.18;100.00;101544.75;5261161;28;20463;-67
2021/09/18 00:45:29;;;;;;;17.55;14.85;;;;;;;13.18;100.00;101539.50;5263420;28;20051;-67
2021/09/18 00:48:00;;;;;;;15.40;13.68;;;;;;;13.14;100.00;101544.19;5262933;28;20420;-67
2021/09/18 00:50:32;;;;;;;17.63;13.85;;;;;;;13.12;100.00;101540.84;5266850;28;20498;-68
2021/09/18 00:53:03;;;;;;;15.55;13.75;;;;;;;13.07;100.00;101544.84;5258720;28;20041;-68
2021/09/18 00:55:34;;;;;;;16.83;14.23;;;;;;;13.01;100.00;101546.19;5264762;28;20041;-68
2021/09/18 00:58:06;;;;;;;18.73;14.50;;;;;;;13.06;100.00;101548.41;5263773;28;20052;-67
2021/09/18 01:00:37;;;;;;;16.55;14.60;;;;;;;12.91;100.00;101534.75;5266188;28;20031;-67
2021/09/18 01:03:09;;;;;;;14.90;13.35;;;;;;;13.02;100.00;101541.75;5264690;28;20094;-67
2021/09/18 01:05:40;;;;;;;15.27;13.40;;;;;;;12.90;100.00;101547.06;5265572;28;20029;-68
2021/09/18 01:08:12;;;;;;;20.52;13.52;;;;;;;12.95;100.00;101545.84;5265042;28;20120;-67
2021/09/18 01:10:43;;;;;;;15.93;14.00;;;;;;;12.84;100.00;101531.84;5267315;28;20033;-68
2021/09/18 01:13:20;;;;;;;15.00;12.50;;;;;;;12.88;100.00;101543.75;5265315;28;20043;-67
2021/09/18 01:15:52;;;;;;;16.33;13.73;;;;;;;12.82;100.00;101541.63;5262862;28;20020;-67
2021/09/18 01:18:23;;;;;;;15.65;12.60;;;;;;;12.81;100.00;101542.59;5264042;28;20029;-67
2021/09/18 01:20:55;;;;;;;15.15;13.20;;;;;;;12.81;100.00;101553.13;5264159;28;20032;-67
2021/09/18 01:23:26;;;;;;;15.40;11.75;;;;;;;12.74;100.00;101544.06;5264547;28;20503;-67
2021/09/18 01:25:58;;;;;;;13.63;12.00;;;;;;;12.73;100.00;101550.28;5264410;28;20044;-67
2021/09/18 01:28:29;;;;;;;16.90;11.90;;;;;;;12.75;100.00;101556.25;5263721;28;20027;-67
2021/09/18 01:31:01;;;;;;;14.57;11.90;;;;;;;12.73;100.00;101557.31;5265436;28;20016;-67
2021/09/18 01:33:32;;;;;;;14.35;11.68;;;;;;;12.70;100.00;101555.78;5264258;28;20467;-67
2021/09/18 01:36:04;;;;;;;13.45;11.57;;;;;;;12.73;100.00;101554.69;5264301;28;20053;-67
2021/09/18 01:38:35;;;;;;;12.90;11.13;;;;;;;12.70;100.00;101553.16;5265341;28;20271;-67
2021/09/18 01:41:06;;;;;;;12.68;10.73;;;;;;;12.62;100.00;101560.84;5262903;28;20024;-67
2021/09/18 01:43:37;;;;;;;12.07;10.77;;;;;;;12.57;100.00;101558.56;5266708;28;20032;-67
2021/09/18 01:46:09;;;;;;;12.77;10.88;;;;;;;12.53;100.00;101556.34;5265482;28;20032;-68
2021/09/18 01:48:40;;;;;;;13.68;10.18;;;;;;;12.52;100.00;101554.66;5265433;28;20138;-68
2021/09/18 01:51:14;;;;;;;12.18;10.88;;;;;;;12.49;100.00;101554.91;5262390;28;20035;-69
2021/09/18 01:53:46;;;;;;;11.20;10.10;;;;;;;12.45;100.00;101550.88;5265253;28;20044;-67
2021/09/18 01:56:17;;;;;;;10.77;9.57;;;;;;;12.46;100.00;101552.53;5265195;28;20020;-67
2021/09/18 01:58:49;;;;;;;12.93;10.40;;;;;;;12.40;100.00;101554.72;5257073;28;20033;-67
2021/09/18 02:01:20;;;;;;;11.10;9.90;;;;;;;12.47;100.00;101556.84;5264549;28;20057;-68
2021/09/18 02:03:52;;;;;;;13.38;10.20;;;;;;;12.41;100.00;101556.38;5257096;28;20454;-67
2021/09/18 02:06:23;;;;;;;11.13;9.75;;;;;;;12.43;100.00;101558.06;5264260;28;20037;-67
2021/09/18 02:08:54;;;;;;;11.95;10.70;;;;;;;12.35;100.00;101551.63;5263584;28;20510;-67
2021/09/18 02:11:26;;;;;;;12.18;9.52;;;;;;;12.36;100.00;101550.66;5264053;28;20086;-67
2021/09/18 02:13:57;;;;;;;11.23;9.90;;;;;;;12.33;100.00;101553.53;5258943;28;20367;-67
2021/09/18 02:16:29;;;;;;;12.98;10.60;;;;;;;12.29;100.00;101552.13;5263207;28;20078;-67
2021/09/18 02:19:00;;;;;;;11.48;9.43;;;;;;;12.28;100.00;101549.63;5257357;28;20036;-68
2021/09/18 02:21:31;;;;;;;12.13;9.65;;;;;;;12.26;100.00;101546.28;5264906;28;20026;-68
2021/09/18 02:24:03;;;;;;;9.90;8.88;;;;;;;12.21;100.00;101540.56;5263740;28;20025;-67
2021/09/18 02:26:34;;;;;;;13.00;10.70;;;;;;;12.21;100.00;101533.50;5261896;28;20482;-67
2021/09/18 02:29:05;;;;;;;11.80;10.45;;;;;;;12.20;100.00;101539.75;5265713;28;20055;-67
2021/09/18 02:31:37;;;;;;;14.27;11.40;;;;;;;12.22;100.00;101540.44;5263656;28;20024;-68
2021/09/18 02:34:08;;;;;;;13.38;12.02;;;;;;;12.22;100.00;101535.19;5264885;28;20024;-67
2021/09/18 02:36:39;;;;;;;14.45;11.90;;;;;;;12.22;100.00;101534.34;5261717;28;20079;-68
2021/09/18 02:39:11;;;;;;;13.93;11.07;;;;;;;12.21;100.00;101530.06;5261218;28;20104;-67
2021/09/18 02:41:42;;;;;;;13.07;11.65;;;;;;;12.19;100.00;101522.28;5264735;28;20467;-67
2021/09/18 02:44:13;;;;;;;15.13;11.57;;;;;;;12.17;100.00;101522.41;5262724;28;20036;-67
2021/09/18 02:46:45;;;;;;;13.45;11.30;;;;;;;12.16;100.00;101519.94;5263244;28;20513;-68
2021/09/18 02:49:16;;;;;;;14.60;12.55;;;;;;;12.13;100.00;101520.16;5263811;28;20056;-67
2021/09/18 02:51:47;;;;;;;15.23;12.63;;;;;;;12.14;100.00;101516.56;5263292;28;20466;-68
2021/09/18 02:54:18;;;;;;;17.58;15.05;;;;;;;12.15;100.00;101518.25;5266011;28;20116;-67
2021/09/18 02:56:53;;;;;;;18.30;16.13;;;;;;;12.15;100.00;101507.72;5262238;28;20390;-68
2021/09/18 02:59:24;;;;;;;20.88;16.88;;;;;;;12.17;100.00;101505.81;5262282;28;20391;-68
2021/09/18 03:01:56;;;;;;;18.55;16.25;;;;;;;12.17;100.00;101500.56;5263404;28;20039;-67
2021/09/18 03:04:27;;;;;;;21.38;17.05;;;;;;;12.15;100.00;101505.94;5256253;28;20017;-67
2021/09/18 03:06:59;;;;;;;19.63;17.52;;;;;;;12.16;100.00;101501.53;5263509;28;20035;-67
2021/09/18 03:09:31;;;;;;;23.08;17.67;;;;;;;12.14;100.00;101500.81;5260540;28;20052;-67
2021/09/18 03:12:03;;;;;;;21.10;16.83;;;;;;;12.14;100.00;101503.44;5264322;28;20036;-67
2021/09/18 03:14:34;;;;;;;20.48;16.70;;;;;;;12.13;100.00;101504.41;5261315;28;20033;-68
2021/09/18 03:17:05;;;;;;;22.98;17.52;;;;;;;12.08;100.00;101502.13;5263787;28;20107;-67
2021/09/18 03:19:37;;;;;;;21.25;17.30;;;;;;;12.13;100.00;101507.03;5263532;28;20028;-67
2021/09/18 03:22:08;;;;;;;19.52;15.88;;;;;;;12.05;100.00;101505.03;5261400;28;20024;-67
2021/09/18 03:24:39;;;;;;;18.35;16.35;;;;;;;12.06;100.00;101503.22;5262076;28;20189;-67
2021/09/18 03:27:14;;;;;;;17.63;15.73;;;;;;;12.05;100.00;101506.81;5259106;28;20021;-67
2021/09/18 03:29:45;;;;;;;22.05;16.23;;;;;;;12.05;100.00;101506.81;5265766;28;20047;-68
2021/09/18 03:32:16;;;;;;;19.30;15.70;;;;;;;12.00;100.00;101508.97;5263463;28;20024;-68
2021/09/18 03:34:48;;;;;;;19.63;15.93;;;;;;;12.01;100.00;101502.75;5262105;28;20056;-67
2021/09/18 03:37:20;;;;;;;20.80;15.10;;;;;;;11.99;100.00;101508.13;5262561;28;20036;-68
2021/09/18 03:39:51;;;;;;;18.67;16.45;;;;;;;11.98;100.00;101511.72;5261706;28;20032;-67
2021/09/18 03:42:22;;;;;;;19.38;16.98;;;;;;;11.96;100.00;101504.91;5261770;28;20028;-67
2021/09/18 03:44:53;;;;;;;20.50;16.42;;;;;;;11.94;100.00;101510.31;5260367;28;20072;-67
2021/09/18 03:47:25;;;;;;;20.25;16.35;;;;;;;11.88;100.00;101501.09;5262878;28;20075;-67
2021/09/18 03:49:56;;;;;;;18.58;16.23;;;;;;;11.87;100.00;101512.56;5262947;28;20516;-67
2021/09/18 03:52:28;;;;;;;20.45;16.05;;;;;;;11.84;100.00;101510.19;5262390;28;20047;-68
2021/09/18 03:54:59;;;;;;;20.33;15.98;;;;;;;11.83;100.00;101502.41;5262776;28;20119;-67
2021/09/18 03:57:30;;;;;;;19.88;15.23;;;;;;;11.83;100.00;101497.16;5259892;28;20037;-67
2021/09/18 04:00:04;;;;;;;18.90;15.98;;;;;;;11.84;100.00;101501.47;5261772;28;20524;-67
2021/09/18 04:02:36;;;;;;;18.02;15.63;;;;;;;11.80;100.00;101503.47;5258939;28;20036;-67
2021/09/18 04:05:08;;;;;;;21.92;16.02;;;;;;;11.81;100.00;101494.66;5261072;28;20494;-67
2021/09/18 04:07:39;;;;;;;21.15;16.20;;;;;;;11.82;100.00;101500.72;5260814;28;20041;-67
2021/09/18 04:10:11;;;;;;;17.92;15.63;;;;;;;11.81;100.00;101512.19;5261075;28;20028;-68
2021/09/18 04:12:42;;;;;;;20.70;15.38;;;;;;;11.81;100.00;101506.94;5263649;28;20119;-67
2021/09/18 04:15:13;;;;;;;22.25;15.63;;;;;;;11.79;100.00;101514.94;5260706;28;20021;-67
2021/09/18 04:17:45;;;;;;;20.77;16.92;;;;;;;11.78;100.00;101517.69;5261636;28;20042;-67
2021/09/18 04:20:16;;;;;;;20.45;15.88;;;;;;;11.76;100.00;101520.44;5260326;28;20025;-67
2021/09/18 04:22:47;;;;;;;19.30;16.85;;;;;;;11.76;100.00;101516.97;5266158;28;20086;-67
2021/09/18 04:25:19;;;;;;;19.38;17.35;;;;;;;11.78;100.00;101517.69;5266489;28;20036;-67
2021/09/18 04:27:51;;;;;;;21.85;17.33;;;;;;;11.80;100.00;101516.63;5265955;28;20060;-67
2021/09/18 04:30:23;;;;;;;18.92;16.27;;;;;;;11.76;100.00;101525.69;5267257;28;20497;-67
2021/09/18 04:32:54;;;;;;;23.38;16.67;;;;;;;11.74;100.00;101524.97;5263252;28;20039;-67
2021/09/18 04:35:26;;;;;;;21.50;16.70;;;;;;;11.73;100.00;101528.56;5263154;28;20044;-68
2021/09/18 04:37:57;;;;;;;19.33;16.52;;;;;;;11.72;100.00;101526.88;5265292;28;20033;-67
2021/09/18 04:40:28;;;;;;;21.80;16.80;;;;;;;11.71;100.00;101532.28;5266010;28;20024;-67
2021/09/18 04:42:59;;;;;;;19.50;16.88;;;;;;;11.72;100.00;101531.31;5266249;28;20062;-68
2021/09/18 04:45:31;;;;;;;20.15;15.38;;;;;;;11.64;100.00;101530.13;5265195;28;20035;-68
2021/09/18 04:48:02;;;;;;;18.25;15.45;;;;;;;11.61;100.00;101519.84;5267560;28;20032;-67
2021/09/18 04:50:34;;;;;;;20.85;16.52;;;;;;;11.56;100.00;101527.25;5267120;28;20170;-68
2021/09/18 04:53:05;;;;;;;20.80;15.73;;;;;;;11.58;100.00;101527.13;5263989;28;20098;-67
2021/09/18 04:55:36;;;;;;;20.40;15.65;;;;;;;11.56;100.00;101534.31;5264501;28;20375;-67
2021/09/18 04:58:08;;;;;;;19.35;15.20;;;;;;;11.57;100.00;101538.59;5263335;28;20116;-67
2021/09/18 05:00:39;;;;;;;18.35;14.65;;;;;;;11.54;100.00;101544.91;5264497;28;20530;-67
2021/09/18 05:03:10;;;;;;;17.80;14.80;;;;;;;11.51;100.00;101544.31;5265201;28;20030;-67
2021/09/18 05:05:43;;;;;;;17.52;15.27;;;;;;;11.52;100.00;101546.00;5265929;28;20116;-67
2021/09/18 05:08:15;;;;;;;18.42;15.90;;;;;;;11.53;100.00;101550.28;5265240;28;20113;-67
2021/09/18 05:10:47;;;;;;;19.10;17.10;;;;;;;11.46;100.00;101557.78;5266010;28;20024;-67
2021/09/18 05:13:18;;;;;;;16.55;14.63;;;;;;;11.44;100.00;101555.28;5265064;28;20100;-67
2021/09/18 05:15:49;;;;;;;19.00;16.88;;;;;;;11.40;100.00;101555.63;5263915;28;20024;-67
2021/09/18 05:18:21;;;;;;;18.92;16.88;;;;;;;11.39;100.00;101557.41;5263478;28;20384;-67
2021/09/18 05:20:52;;;;;;;20.75;18.65;;;;;;;11.36;100.00;101567.31;5264404;28;20108;-67
2021/09/18 05:23:23;;;;;;;20.92;17.55;;;;;;;11.42;100.00;101561.59;5265498;28;20033;-67
2021/09/18 05:25:54;;;;;;;22.48;20.10;;;;;;;11.39;100.00;101567.91;5263824;28;20028;-68
2021/09/18 05:28:26;;;;;;;22.05;19.50;;;;;;;11.43;100.00;101577.22;5262750;28;20064;-67
2021/09/18 05:30:57;;;;;;;25.92;22.85;;;;;;;11.43;100.00;101571.97;5264367;28;20025;-68
2021/09/18 05:33:29;;;;;;;61.95;26.33;;;;;;;11.44;100.00;101575.44;5264880;28;20122;-67
2021/09/18 05:36:00;;;;;;;31.13;24.92;;;;;;;11.48;100.00;101573.41;5268964;28;20028;-68
2021/09/18 05:38:31;;;;;;;33.17;26.98;;;;;;;11.50;100.00;101574.13;5267278;28;20032;-67
2021/09/18 05:41:02;;;;;;;33.33;28.27;;;;;;;11.55;100.00;101570.19;5265484;28;20077;-68
2021/09/18 05:43:34;;;;;;;34.38;28.52;;;;;;;11.61;100.00;101571.50;5265029;28;20077;-67
2021/09/18 05:46:05;;;;;;;35.47;30.25;;;;;;;11.64;100.00;101577.34;5265385;28;20020;-67
2021/09/18 05:48:36;;;;;;;36.75;30.52;;;;;;;11.64;100.00;101573.91;5263137;28;20049;-68
2021/09/18 05:51:08;;;;;;;36.38;31.45;;;;;;;11.67;100.00;101566.63;5267090;28;20074;-67
2021/09/18 05:53:39;;;;;;;62.15;33.25;;;;;;;11.72;100.00;101576.75;5267572;28;20103;-68
2021/09/18 05:56:10;;;;;;;57.28;32.45;;;;;;;11.77;100.00;101576.41;5265689;28;20423;-68
2021/09/18 05:58:42;;;;;;;42.42;31.50;;;;;;;11.80;100.00;101577.00;5266011;28;20033;-68
2021/09/18 06:01:13;;;;;;;36.40;32.22;;;;;;;11.84;100.00;101578.44;5264423;28;20035;-66
2021/09/18 06:03:44;;;;;;;39.42;32.83;;;;;;;11.85;100.00;101576.66;5259508;28;20378;-67
2021/09/18 06:06:16;;;;;;;35.00;31.23;;;;;;;11.87;100.00;101572.97;5264479;28;20194;-68
2021/09/18 06:08:47;;;;;;;35.58;31.63;;;;;;;11.88;100.00;101565.91;5265358;28;20046;-68
2021/09/18 06:11:18;;;;;;;36.63;31.10;;;;;;;11.95;100.00;101584.66;5265671;28;20035;-68
2021/09/18 06:13:50;;;;;;;34.42;30.80;;;;;;;11.97;100.00;101578.34;5265926;28;20043;-68
2021/09/18 06:16:22;;;;;;;34.75;31.05;;;;;;;12.01;100.00;101578.91;5264195;28;20032;-67
2021/09/18 06:18:54;;;;;;;37.85;30.25;;;;;;;12.06;100.00;101582.03;5263118;28;20036;-68
2021/09/18 06:21:25;;;;;;;35.80;30.35;;;;;;;12.10;100.00;101580.81;5262526;28;20036;-68
2021/09/18 06:23:56;;;;;;;37.72;30.33;;;;;;;12.14;100.00;101574.38;5261957;28;20028;-69
2021/09/18 06:26:30;;;;;;;34.05;29.90;;;;;;;12.16;100.00;101581.19;5261398;28;20037;-68
2021/09/18 06:29:01;;;;;;;33.53;29.98;;;;;;;12.23;100.00;101589.38;5261678;28;20032;-68
2021/09/18 06:31:33;;;;;;;34.13;30.27;;;;;;;12.24;100.00;101588.44;5263649;28;20512;-68
2021/09/18 06:34:04;;;;;;;33.08;29.67;;;;;;;12.32;100.00;101596.53;5264141;28;20039;-68
2021/09/18 06:36:36;;;;;;;33.83;30.23;;;;;;;12.37;100.00;101590.91;5266554;28;20045;-69
2021/09/18 06:39:07;;;;;;;33.58;29.92;;;;;;;12.39;100.00;101602.16;5266716;28;20122;-68
2021/09/18 06:41:38;;;;;;;33.75;30.10;;;;;;;12.46;100.00;101605.09;5265602;28;20112;-68
2021/09/18 06:44:10;;;;;;;34.72;30.75;;;;;;;12.50;100.00;101602.13;5262966;28;20123;-67
2021/09/18 06:46:41;;;;;;;35.80;31.90;;;;;;;12.59;100.00;101600.53;5264443;28;20120;-68
2021/09/18 06:49:12;;;;;;;34.67;30.50;;;;;;;12.63;100.00;101604.56;5261734;28;20051;-68
2021/09/18 06:51:43;;;;;;;34.45;30.77;;;;;;;12.67;100.00;101608.63;5257816;28;20122;-68
2021/09/18 06:54:16;;;;;;;34.55;30.95;;;;;;;12.69;100.00;101613.75;5261278;28;20104;-68
2021/09/18 06:56:47;;;;;;;35.47;31.63;;;;;;;12.78;100.00;101610.38;5261365;28;20017;-67
2021/09/18 06:59:18;;;;;;;37.63;32.90;;;;;;;12.86;100.00;101606.16;5262416;28;20596;-68
2021/09/18 07:01:50;;;;;;;41.10;33.88;;;;;;;12.97;100.00;101618.41;5263676;28;20029;-68
2021/09/18 07:04:22;;;;;;;41.50;35.13;;;;;;;13.05;100.00;101610.72;5262989;28;20033;-68
2021/09/18 07:06:53;;;;;;;40.83;34.17;;;;;;;13.13;100.00;101608.28;5263811;28;20068;-68
2021/09/18 07:09:24;;;;;;;43.05;35.67;;;;;;;13.20;100.00;101611.25;5261068;28;20511;-68
2021/09/18 07:11:55;;;;;;;40.70;35.08;;;;;;;13.28;100.00;101613.25;5258942;28;20029;-67
2021/09/18 07:14:27;;;;;;;43.92;38.28;;;;;;;13.38;100.00;101614.16;5260738;28;20043;-69
2021/09/18 07:16:58;;;;;;;43.70;36.05;;;;;;;13.36;100.00;101613.44;5260364;28;20033;-68
2021/09/18 07:19:29;;;;;;;50.03;38.22;;;;;;;13.45;100.00;101617.09;5259604;28;20380;-68
2021/09/18 07:22:01;;;;;;;45.28;37.03;;;;;;;13.55;100.00;101624.09;5261042;28;20260;-68
2021/09/18 07:24:34;;;;;;;49.80;39.35;;;;;;;13.65;100.00;101624.16;5260421;28;20471;-68
2021/09/18 07:27:06;;;;;;;50.65;39.63;;;;;;;13.73;100.00;101620.88;5260913;28;20032;-68
2021/09/18 07:29:37;;;;;;;49.95;38.78;;;;;;;13.80;100.00;101620.19;5262274;28;20033;-68
2021/09/18 07:32:08;;;;;;;53.92;39.90;;;;;;;13.94;100.00;101623.44;5261369;28;20470;-68
2021/09/18 07:34:40;;;;;;;54.22;41.00;;;;;;;13.95;100.00;101628.59;5262760;28;20028;-68
2021/09/18 07:37:11;;;;;;;55.70;42.75;;;;;;;14.06;100.00;101623.22;5261633;28;20390;-68
2021/09/18 07:39:43;;;;;;;57.42;43.13;;;;;;;14.10;100.00;101621.97;5264216;28;20027;-67
2021/09/18 07:42:14;;;;;;;60.05;44.58;;;;;;;14.30;100.00;101625.50;5261011;28;20028;-68
2021/09/18 07:44:46;;;;;;;63.05;45.33;;;;;;;14.43;100.00;101621.75;5261873;28;20450;-68
2021/09/18 07:47:17;;;;;;;59.00;43.10;;;;;;;14.60;100.00;101615.88;5260427;28;20060;-68
2021/09/18 07:49:48;;;;;;;59.08;43.53;;;;;;;14.73;100.00;101626.13;5261330;28;20112;-69
2021/09/18 07:52:20;;;;;;;57.80;42.53;;;;;;;14.87;100.00;101620.47;5263092;28;20291;-68
2021/09/18 07:54:51;;;;;;;58.85;42.88;;;;;;;14.93;100.00;101613.81;5261181;28;20024;-67
2021/09/18 07:57:22;;;;;;;54.92;41.42;;;;;;;15.01;100.00;101616.56;5263230;28;20025;-68
2021/09/18 07:59:54;;;;;;;57.63;42.00;;;;;;;15.19;100.00;101622.81;5261631;28;20375;-69
2021/09/18 08:02:26;;;;;;;56.45;41.92;;;;;;;15.30;100.00;101625.28;5263852;28;20074;-68
2021/09/18 08:04:57;;;;;;;57.50;42.90;;;;;;;15.43;100.00;101622.34;5262979;28;20067;-68
2021/09/18 08:07:29;;;;;;;60.47;41.80;;;;;;;15.47;100.00;101631.63;5263544;28;20029;-67
2021/09/18 08:10:00;;;;;;;53.15;40.15;;;;;;;15.69;100.00;101625.22;5264985;28;20062;-68
2021/09/18 08:12:32;;;;;;;53.35;40.72;;;;;;;15.75;100.00;101635.19;5265436;28;20028;-67
2021/09/18 08:15:04;;;;;;;53.05;39.70;;;;;;;15.98;100.00;101632.19;5264217;28;20041;-69
2021/09/18 08:17:35;;;;;;;50.10;38.80;;;;;;;16.07;100.00;101627.84;5262279;28;20394;-66
2021/09/18 08:20:07;;;;;;;50.80;39.25;;;;;;;16.23;100.00;101625.38;5260181;28;20032;-67
2021/09/18 08:22:39;;;;;;;49.23;39.10;;;;;;;16.36;100.00;101630.31;5262098;28;20029;-68
2021/09/18 08:25:10;;;;;;;51.78;39.92;;;;;;;16.56;100.00;101631.03;5262695;28;20029;-66
2021/09/18 08:27:42;;;;;;;48.58;37.80;;;;;;;16.70;100.00;101627.84;5263245;28;20081;-69
2021/09/18 08:30:16;;;;;;;49.28;37.85;;;;;;;16.83;100.00;101625.69;5255769;28;20051;-68
2021/09/18 08:32:47;;;;;;;43.85;34.30;;;;;;;16.94;100.00;101630.75;5259987;28;21091;-66
2021/09/18 08:35:18;;;;;;;41.50;34.40;;;;;;;17.06;100.00;101627.88;5263951;28;20040;-68
2021/09/18 08:37:50;;;;;;;41.80;34.72;;;;;;;17.09;100.00;101622.28;5262064;28;20032;-68
2021/09/18 08:40:24;;;;;;;37.28;32.63;;;;;;;17.23;100.00;101630.47;5262803;28;20033;-68
2021/09/18 08:42:56;;;;;;;35.65;31.38;;;;;;;17.38;100.00;101628.09;5261483;28;20396;-68
2021/09/18 08:45:27;;;;;;;38.67;30.45;;;;;;;17.50;100.00;101629.53;5260182;28;20027;-69
2021/09/18 08:48:03;;;;;;;32.45;28.35;;;;;;;17.69;100.00;101630.25;5263905;28;20021;-67
2021/09/18 08:50:36;;;;;;;34.35;27.75;;;;;;;17.64;100.00;101624.63;5263018;28;20363;-69
2021/09/18 08:53:07;;;;;;;32.38;27.20;;;;;;;17.90;100.00;101628.09;5263113;28;20032;-67
2021/09/18 08:55:38;;;;;;;29.23;25.42;;;;;;;18.05;100.00;101630.16;5264443;28;20028;-68
2021/09/18 08:58:10;;;;;;;31.83;25.25;;;;;;;18.21;100.00;101633.69;5263505;28;20122;-68
2021/09/18 09:00:43;;;;;;;27.50;24.30;;;;;;;18.28;100.00;101630.38;5263305;28;20118;-68
2021/09/18 09:03:23;;;;;;;27.98;21.73;;;;;;;18.53;100.00;101628.63;5261415;28;20046;-66
2021/09/18 09:06:07;;;;;;;26.30;22.52;;;;;;;18.52;100.00;101637.56;5263442;28;20036;-68
2021/09/18 09:08:42;;;;;;;27.33;22.35;;;;;;;18.58;100.00;101631.63;5267978;28;20137;-68
2021/09/18 09:11:27;;;;;;;24.67;19.88;;;;;;;18.80;100.00;101630.19;5267932;28;20034;-70
2021/09/18 09:14:04;;;;;;;22.65;18.55;;;;;;;18.86;100.00;101625.03;5266522;28;20028;-68
2021/09/18 09:16:36;;;;;;;18.15;16.17;;;;;;;18.95;100.00;101639.16;5267417;28;20038;-68
2021/09/18 09:19:15;;;;;;;16.67;14.63;;;;;;;19.10;100.00;101623.41;5268259;28;20482;-69
2021/09/18 09:21:53;;;;;;;16.65;14.15;;;;;;;19.11;100.00;101628.53;5266036;28;20038;-69
2021/09/18 09:24:24;;;;;;;20.27;16.05;;;;;;;19.22;100.00;101634.50;5267351;28;20032;-69
2021/09/18 09:27:14;;;;;;;18.40;15.93;;;;;;;19.48;100.00;101631.66;5266958;28;20021;-68
2021/09/18 09:29:54;;;;;;;14.30;11.82;;;;;;;19.39;100.00;101631.63;5265800;28;20082;-68
2021/09/18 09:32:37;;;;;;;13.63;12.23;;;;;;;19.55;100.00;101630.81;5267270;28;20558;-68
2021/09/18 09:35:11;;;;;;;18.33;13.93;;;;;;;19.68;100.00;101635.59;5266943;28;20771;-67
2021/09/18 09:37:54;;;;;;;17.13;12.55;;;;;;;19.83;100.00;101639.22;5266462;28;20039;-69
2021/09/18 09:40:45;;;;;;;16.70;13.93;;;;;;;19.92;100.00;101638.16;5267224;28;20112;-68
2021/09/18 09:43:18;;;;;;;17.95;15.50;;;;;;;19.98;100.00;101634.00;5265675;28;20290;-68
2021/09/18 09:45:50;;;;;;;16.10;14.45;;;;;;;20.04;100.00;101633.31;5268251;28;20028;-69
2021/09/18 09:48:22;;;;;;;16.90;13.70;;;;;;;20.21;100.00;101630.59;5262013;28;20036;-67
2021/09/18 09:51:02;;;;;;;11.52;10.25;;;;;;;20.39;100.00;101634.63;5267628;28;20045;-69
2021/09/18 09:53:36;;;;;;;9.70;7.60;;;;;;;20.41;100.00;101637.09;5266664;28;20028;-68
2021/09/18 09:56:25;;;;;;;10.00;7.07;;;;;;;20.57;100.00;101637.06;5265969;28;20024;-68
2021/09/18 09:59:00;;;;;;;13.00;10.88;;;;;;;20.59;100.00;101632.38;5268305;28;20032;-68
2021/09/18 10:01:31;;;;;;;14.82;13.10;;;;;;;20.54;100.00;101634.75;5267166;28;20025;-68
2021/09/18 10:04:03;;;;;;;13.33;12.00;;;;;;;20.70;100.00;101636.47;5266588;28;20032;-66
2021/09/18 10:06:34;;;;;;;10.50;9.27;;;;;;;20.72;100.00;101633.59;5264852;28;20703;-69
2021/09/18 10:09:06;;;;;;;8.83;6.70;;;;;;;20.85;100.00;101631.19;5258332;28;20414;-66
2021/09/18 10:11:39;;;;;;;6.90;6.13;;;;;;;20.78;100.00;101639.06;5267019;28;20376;-68
2021/09/18 10:14:14;;;;;;;8.75;6.95;;;;;;;20.88;100.00;101634.34;5266326;28;20029;-68
2021/09/18 10:16:51;;;;;;;9.38;7.53;;;;;;;20.97;100.00;101616.44;5257653;28;20043;-66
2021/09/18 10:25:34;;;;;;;6.80;6.13;;;;;;;21.41;100.00;101633.56;5265173;28;20028;-68
2021/09/18 10:28:11;;;;;;;11.05;5.47;;;;;;;21.40;100.00;101626.56;5265443;28;20109;-68
2021/09/18 10:30:55;;;;;;;7.07;5.55;;;;;;;21.43;100.00;101632.34;5265261;28;20048;-68
2021/09/18 10:33:51;;;;;;;6.70;5.20;;;;;;;21.66;100.00;101626.94;5264955;28;20080;-66
2021/09/18 10:36:32;;;;;;;9.27;6.40;;;;;;;21.59;100.00;101624.22;5262704;28;20547;-67
2021/09/18 10:39:12;;;;;;;8.60;6.57;;;;;;;21.52;100.00;101615.28;5263853;28;20024;-67
2021/09/18 10:41:48;;;;;;;5.72;4.95;;;;;;;21.54;100.00;101615.91;5267087;28;20111;-68
2021/09/18 10:44:22;;;;;;;5.90;4.30;;;;;;;21.62;100.00;101617.66;5265609;28;20509;-68
2021/09/18 10:46:58;;;;;;;6.22;5.47;;;;;;;21.75;100.00;101615.19;5262511;28;20027;-69
2021/09/18 10:52:17;;;;;;;9.20;6.63;;;;;;;22.18;100.00;101610.00;5262949;28;20037;-68
2021/09/18 10:55:10;;;;;;;7.40;6.50;;;;;;;22.25;100.00;101599.41;5264689;28;20021;-68
2021/09/18 10:57:42;;;;;;;;;;;;;;;22.54;100.00;101603.78;5261835;28;20116;-68
2021/09/18 11:00:19;;;;;;;7.43;5.88;;;;;;;22.22;100.00;101605.09;5266418;28;20481;-68
2021/09/18 11:02:55;;;;;;;8.02;5.45;;;;;;;22.31;100.00;101606.63;5264676;28;20409;-66
2021/09/18 11:05:29;;;;;;;6.00;5.28;;;;;;;22.17;100.00;101599.50;5263272;28;20031;-67
2021/09/18 11:08:18;;;;;;;7.22;6.03;;;;;;;22.15;100.00;101597.00;5265421;28;20120;-68
2021/09/18 11:10:52;;;;;;;7.30;4.82;;;;;;;22.17;100.00;101597.66;5263654;28;20105;-68
2021/09/18 11:13:44;;;;;;;7.55;4.53;;;;;;;22.39;100.00;101593.19;5263385;28;20028;-69
2021/09/18 11:16:20;;;;;;;5.47;4.20;;;;;;;22.34;100.00;101599.06;5260421;28;20033;-68
2021/09/18 11:18:57;;;;;;;7.53;5.00;;;;;;;22.56;100.00;101591.91;5258690;28;20040;-68
2021/09/18 11:21:35;;;;;;;6.72;4.85;;;;;;;22.65;100.00;101589.09;5262786;28;20467;-68
2021/09/18 11:24:15;;;;;;;5.32;4.50;;;;;;;22.86;100.00;101594.44;5261993;28;20024;-69
2021/09/18 11:26:47;;;;;;;5.57;4.70;;;;;;;22.86;100.00;101590.94;5262012;28;20676;-68
2021/09/18 11:29:33;;;;;;;5.90;4.78;;;;;;;22.86;100.00;101590.94;5261765;28;20441;-68
2021/09/18 11:32:16;;;;;;;8.15;5.88;;;;;;;22.96;100.00;101594.16;5261881;28;20275;-68
2021/09/18 11:34:50;;;;;;;6.88;5.55;;;;;;;22.87;100.00;101587.25;5264634;28;20112;-68
2021/09/18 11:37:23;;;;;;;6.68;5.60;;;;;;;;;;5263162;28;20056;-68